createdAt,value
2018-10-05T00:00:17.526Z,18
2018-10-05T00:01:07.287Z,18
2018-10-05T00:01:56.989Z,18
2018-10-05T00:02:48.346Z,18
2018-10-05T00:03:37.767Z,18.1
2018-10-05T00:04:28.432Z,18
2018-10-05T00:05:17.567Z,18
2018-10-05T00:06:07.389Z,18
2018-10-05T00:25:31.840Z,17.9
2018-10-05T00:26:07.772Z,17.9
2018-10-05T00:26:57.513Z,17.9
2018-10-05T00:27:47.034Z,17.9
2018-10-05T00:28:37.160Z,18
2018-10-05T00:29:26.910Z,17.9
2018-10-05T00:30:17.775Z,17.9
2018-10-05T00:31:07.048Z,17.9
2018-10-05T00:31:57.375Z,17.9
2018-10-05T00:32:47.775Z,17.9
2018-10-05T00:33:38.047Z,17.9
2018-10-05T00:34:27.052Z,17.9
2018-10-05T00:35:17.079Z,17.9
2018-10-05T00:36:08.242Z,17.9
2018-10-05T00:36:57.689Z,17.9
2018-10-05T00:37:47.572Z,17.9
2018-10-05T00:38:37.948Z,17.9
2018-10-05T00:39:28.352Z,17.9
2018-10-05T00:40:18.319Z,17.9
2018-10-05T00:41:08.418Z,17.9
2018-10-05T00:41:58.215Z,17.9
2018-10-05T00:42:48.191Z,17.9
2018-10-05T00:43:37.706Z,17.9
2018-10-05T00:44:27.712Z,17.9
2018-10-05T00:45:19.411Z,17.9
2018-10-05T00:46:08.408Z,17.9
2018-10-05T00:46:58.513Z,17.9
2018-10-05T00:47:48.291Z,17.9
2018-10-05T00:48:38.031Z,17.9
2018-10-05T00:49:28.379Z,17.9
2018-10-05T00:50:17.903Z,17.9
2018-10-05T00:51:08.001Z,17.9
2018-10-05T00:51:57.759Z,17.9
2018-10-05T00:52:49.611Z,17.9
2018-10-05T00:53:40.853Z,17.9
2018-10-05T00:54:28.493Z,17.9
2018-10-05T00:55:18.068Z,17.9
2018-10-05T00:56:09.548Z,17.9
2018-10-05T00:56:59.035Z,17.9
2018-10-05T00:57:49.115Z,17.9
2018-10-05T00:58:39.402Z,17.9
2018-10-05T00:59:29.838Z,17.9
2018-10-05T01:00:19.316Z,17.9
2018-10-05T01:01:09.190Z,17.9
2018-10-05T01:02:00.596Z,17.9
2018-10-05T01:02:50.242Z,17.9
2018-10-05T01:03:40.513Z,17.9
2018-10-05T01:04:29.242Z,17.8
2018-10-05T01:05:34.707Z,17.9
2018-10-05T01:06:10.395Z,17.9
2018-10-05T01:06:59.337Z,17.9
2018-10-05T01:07:50.520Z,17.8
2018-10-05T01:08:39.967Z,17.8
2018-10-05T01:09:30.387Z,17.8
2018-10-05T01:10:19.927Z,17.8
2018-10-05T01:11:10.785Z,17.8
2018-10-05T01:12:00.297Z,17.8
2018-10-05T01:12:50.652Z,17.8
2018-10-05T01:13:40.641Z,17.8
2018-10-05T01:14:29.995Z,17.8
2018-10-05T01:15:19.705Z,17.8
2018-10-05T01:16:12.112Z,17.8
2018-10-05T01:17:15.602Z,17.8
2018-10-05T01:17:50.755Z,17.8
2018-10-05T01:18:41.354Z,17.8
2018-10-05T01:19:30.851Z,17.8
2018-10-05T01:20:20.629Z,17.8
2018-10-05T01:21:11.694Z,17.8
2018-10-05T01:22:01.365Z,17.8
2018-10-05T01:22:50.618Z,17.8
2018-10-05T01:23:42.221Z,17.8
2018-10-05T01:24:30.639Z,17.8
2018-10-05T01:25:21.487Z,17.8
2018-10-05T01:26:12.399Z,17.8
2018-10-05T01:27:01.678Z,17.8
2018-10-05T01:27:51.504Z,17.8
2018-10-05T01:28:42.807Z,17.8
2018-10-05T01:29:31.899Z,17.8
2018-10-05T01:30:21.099Z,17.8
2018-10-05T01:31:12.038Z,17.8
2018-10-05T01:32:01.839Z,17.8
2018-10-05T01:32:51.563Z,17.8
2018-10-05T01:33:42.459Z,17.8
2018-10-05T01:34:31.956Z,17.8
2018-10-05T01:35:22.009Z,17.8
2018-10-05T01:36:12.053Z,17.8
2018-10-05T01:37:02.974Z,17.8
2018-10-05T01:37:52.171Z,17.8
2018-10-05T01:38:42.056Z,17.8
2018-10-05T01:39:33.183Z,17.8
2018-10-05T01:40:22.679Z,17.8
2018-10-05T01:41:12.745Z,17.8
2018-10-05T01:42:03.006Z,17.8
2018-10-05T01:42:52.896Z,17.8
2018-10-05T01:43:43.764Z,17.8
2018-10-05T01:44:33.565Z,17.8
2018-10-05T01:45:22.810Z,17.8
2018-10-05T01:46:12.851Z,17.8
2018-10-05T01:47:03.685Z,17.7
2018-10-05T01:47:52.068Z,17.8
2018-10-05T01:48:43.037Z,17.8
2018-10-05T01:49:33.613Z,17.7
2018-10-05T01:50:24.050Z,17.8
2018-10-05T01:51:13.503Z,17.7
2018-10-05T01:52:04.133Z,17.7
2018-10-05T01:52:53.350Z,17.7
2018-10-05T01:53:43.715Z,17.7
2018-10-05T01:54:34.015Z,17.7
2018-10-05T01:55:23.821Z,17.7
2018-10-05T01:56:12.415Z,17.7
2018-10-05T01:57:04.450Z,17.7
2018-10-05T01:57:54.210Z,17.7
2018-10-05T01:58:43.488Z,17.7
2018-10-05T01:59:35.142Z,17.7
2018-10-05T02:00:24.488Z,17.7
2018-10-05T02:01:13.926Z,17.7
2018-10-05T02:02:05.395Z,17.7
2018-10-05T02:02:54.340Z,17.7
2018-10-05T02:03:44.390Z,17.7
2018-10-05T02:04:33.922Z,17.7
2018-10-05T02:05:24.260Z,17.7
2018-10-05T02:06:29.249Z,17.7
2018-10-05T02:07:03.831Z,17.7
2018-10-05T02:07:54.694Z,17.7
2018-10-05T02:08:44.694Z,17.7
2018-10-05T02:09:35.324Z,17.7
2018-10-05T02:10:24.901Z,17.7
2018-10-05T02:11:14.108Z,17.6
2018-10-05T02:12:05.281Z,17.6
2018-10-05T02:12:54.242Z,17.7
2018-10-05T02:13:45.392Z,17.7
2018-10-05T02:14:34.881Z,17.6
2018-10-05T02:15:25.508Z,17.6
2018-10-05T02:16:15.306Z,17.6
2018-10-05T02:17:05.986Z,17.6
2018-10-05T02:18:10.379Z,17.6
2018-10-05T02:18:46.068Z,17.6
2018-10-05T02:19:36.162Z,17.6
2018-10-05T02:20:25.388Z,17.6
2018-10-05T02:21:15.137Z,17.6
2018-10-05T02:22:05.741Z,17.6
2018-10-05T02:22:56.326Z,17.6
2018-10-05T02:23:45.606Z,17.6
2018-10-05T02:24:36.204Z,17.6
2018-10-05T02:25:26.249Z,17.6
2018-10-05T02:26:16.801Z,17.6
2018-10-05T02:27:05.265Z,17.6
2018-10-05T02:27:56.443Z,17.6
2018-10-05T02:28:46.235Z,17.6
2018-10-05T02:29:36.046Z,17.6
2018-10-05T02:30:26.131Z,17.6
2018-10-05T02:31:16.643Z,17.6
2018-10-05T02:32:07.070Z,17.6
2018-10-05T02:32:57.330Z,17.6
2018-10-05T02:33:46.653Z,17.6
2018-10-05T02:34:36.613Z,17.6
2018-10-05T02:35:41.420Z,17.6
2018-10-05T02:36:16.516Z,17.6
2018-10-05T02:37:21.563Z,17.6
2018-10-05T02:37:57.793Z,17.6
2018-10-05T02:38:46.925Z,17.6
2018-10-05T02:39:37.255Z,17.6
2018-10-05T02:40:27.102Z,17.6
2018-10-05T02:41:31.993Z,17.6
2018-10-05T02:42:07.794Z,17.6
2018-10-05T02:42:57.502Z,17.6
2018-10-05T02:44:02.488Z,17.6
2018-10-05T02:44:37.765Z,17.6
2018-10-05T02:45:28.034Z,17.6
2018-10-05T02:46:17.289Z,17.6
2018-10-05T02:47:07.012Z,17.6
2018-10-05T02:47:58.182Z,17.6
2018-10-05T02:48:48.527Z,17.6
2018-10-05T02:49:37.824Z,17.6
2018-10-05T02:50:27.539Z,17.6
2018-10-05T02:51:18.201Z,17.5
2018-10-05T02:52:08.287Z,17.5
2018-10-05T02:52:58.014Z,17.6
2018-10-05T02:53:48.300Z,17.6
2018-10-05T02:54:37.631Z,17.6
2018-10-05T02:55:27.684Z,17.6
2018-10-05T02:56:18.848Z,17.5
2018-10-05T02:57:07.201Z,17.6
2018-10-05T02:57:59.021Z,17.5
2018-10-05T02:58:48.290Z,17.5
2018-10-05T02:59:39.114Z,17.5
2018-10-05T03:00:28.553Z,17.5
2018-10-05T03:01:19.378Z,17.5
2018-10-05T03:02:08.729Z,17.5
2018-10-05T03:02:58.584Z,17.6
2018-10-05T03:03:49.400Z,17.5
2018-10-05T03:04:38.853Z,17.5
2018-10-05T03:05:29.069Z,17.5
2018-10-05T03:06:19.018Z,17.5
2018-10-05T03:07:08.518Z,17.5
2018-10-05T03:07:59.523Z,17.5
2018-10-05T03:08:49.519Z,17.5
2018-10-05T03:09:39.561Z,17.5
2018-10-05T03:10:28.764Z,17.4
2018-10-05T03:11:18.238Z,17.5
2018-10-05T03:12:10.333Z,17.5
2018-10-05T03:13:00.103Z,17.5
2018-10-05T03:13:50.073Z,17.5
2018-10-05T03:14:39.598Z,17.5
2018-10-05T03:15:29.444Z,17.5
2018-10-05T03:16:20.014Z,17.5
2018-10-05T03:17:09.453Z,17.4
2018-10-05T03:17:59.606Z,17.4
2018-10-05T03:18:50.758Z,17.5
2018-10-05T03:19:38.880Z,17.5
2018-10-05T03:20:29.238Z,17.4
2018-10-05T03:21:19.561Z,17.4
2018-10-05T03:22:10.535Z,17.4
2018-10-05T03:22:59.965Z,17.4
2018-10-05T03:23:50.162Z,17.4
2018-10-05T03:24:40.416Z,17.4
2018-10-05T03:25:31.642Z,17.4
2018-10-05T03:26:21.209Z,17.4
2018-10-05T03:27:10.016Z,17.4
2018-10-05T03:28:01.248Z,17.4
2018-10-05T03:28:51.244Z,17.4
2018-10-05T03:29:41.007Z,17.4
2018-10-05T03:30:31.126Z,17.4
2018-10-05T03:31:20.839Z,17.4
2018-10-05T03:32:10.449Z,17.4
2018-10-05T03:33:01.447Z,17.4
2018-10-05T03:34:06.517Z,17.4
2018-10-05T03:34:41.376Z,17.4
2018-10-05T03:35:31.137Z,17.4
2018-10-05T03:36:21.718Z,17.4
2018-10-05T03:37:11.538Z,17.4
2018-10-05T03:38:01.095Z,17.4
2018-10-05T03:38:51.752Z,17.4
2018-10-05T03:39:42.011Z,17.4
2018-10-05T03:40:31.234Z,17.4
2018-10-05T03:41:21.578Z,17.4
2018-10-05T03:42:11.388Z,17.4
2018-10-05T03:43:02.006Z,17.4
2018-10-05T03:43:52.328Z,17.4
2018-10-05T03:44:42.054Z,17.4
2018-10-05T03:45:31.676Z,17.4
2018-10-05T03:46:22.306Z,17.4
2018-10-05T03:47:11.464Z,17.4
2018-10-05T03:48:02.028Z,17.4
2018-10-05T03:48:52.117Z,17.4
2018-10-05T03:49:40.800Z,17.4
2018-10-05T03:50:32.005Z,17.4
2018-10-05T03:51:22.353Z,17.4
2018-10-05T03:52:12.382Z,17.4
2018-10-05T03:53:02.470Z,17.4
2018-10-05T03:53:52.227Z,17.4
2018-10-05T03:54:42.849Z,17.3
2018-10-05T03:55:32.085Z,17.4
2018-10-05T03:56:22.682Z,17.3
2018-10-05T03:57:13.022Z,17.4
2018-10-05T03:58:02.874Z,17.4
2018-10-05T03:58:52.857Z,17.4
2018-10-05T03:59:42.799Z,17.3
2018-10-05T04:00:32.574Z,17.3
2018-10-05T04:01:22.344Z,17.3
2018-10-05T04:02:12.389Z,17.3
2018-10-05T04:03:01.878Z,17.3
2018-10-05T04:03:52.458Z,17.3
2018-10-05T04:04:42.377Z,17.4
2018-10-05T04:05:33.165Z,17.3
2018-10-05T04:06:23.745Z,17.3
2018-10-05T04:07:11.923Z,17.3
2018-10-05T04:08:02.186Z,17.3
2018-10-05T04:08:53.424Z,17.3
2018-10-05T04:09:43.262Z,17.3
2018-10-05T04:10:32.435Z,17.3
2018-10-05T04:11:24.906Z,17.3
2018-10-05T04:12:13.144Z,17.3
2018-10-05T04:13:03.201Z,17.3
2018-10-05T04:13:53.233Z,17.3
2018-10-05T04:14:43.606Z,17.3
2018-10-05T04:15:33.668Z,17.3
2018-10-05T04:16:23.725Z,17.3
2018-10-05T04:17:13.994Z,17.3
2018-10-05T04:18:04.085Z,17.3
2018-10-05T04:18:54.182Z,17.3
2018-10-05T04:19:59.049Z,17.3
2018-10-05T04:20:34.503Z,17.3
2018-10-05T04:21:24.885Z,17.3
2018-10-05T04:22:15.142Z,17.3
2018-10-05T04:23:04.740Z,17.3
2018-10-05T04:23:54.773Z,17.3
2018-10-05T04:24:44.311Z,17.3
2018-10-05T04:25:34.568Z,17.3
2018-10-05T04:26:42.618Z,17.3
2018-10-05T04:27:15.781Z,17.3
2018-10-05T04:28:04.336Z,17.3
2018-10-05T04:28:55.407Z,17.3
2018-10-05T04:29:46.403Z,17.3
2018-10-05T04:30:35.233Z,17.3
2018-10-05T04:31:39.806Z,17.3
2018-10-05T04:32:15.133Z,17.3
2018-10-05T04:33:04.920Z,17.2
2018-10-05T04:33:54.983Z,17.2
2018-10-05T04:34:43.937Z,17.2
2018-10-05T04:35:36.399Z,17.2
2018-10-05T04:36:25.179Z,17.2
2018-10-05T04:54:38.687Z,17.2
2018-10-05T04:55:29.312Z,17.2
2018-10-05T04:56:19.361Z,17.2
2018-10-05T04:57:10.048Z,17.2
2018-10-05T04:57:59.353Z,17.1
2018-10-05T04:58:49.220Z,17.2
2018-10-05T04:59:40.002Z,17.2
2018-10-05T05:00:30.179Z,17.2
2018-10-05T05:01:19.701Z,17.1
2018-10-05T05:02:09.527Z,17.1
2018-10-05T05:02:59.807Z,17.1
2018-10-05T05:03:49.384Z,17.1
2018-10-05T05:04:40.519Z,17.1
2018-10-05T05:05:28.921Z,17.1
2018-10-05T05:06:19.195Z,17.1
2018-10-05T05:07:09.862Z,17.1
2018-10-05T05:07:59.579Z,17.1
2018-10-05T05:08:49.436Z,17.1
2018-10-05T05:09:40.865Z,17.1
2018-10-05T05:10:30.186Z,17.1
2018-10-05T05:11:20.389Z,17.1
2018-10-05T05:12:11.160Z,17.1
2018-10-05T05:12:59.757Z,17.1
2018-10-05T05:13:48.966Z,17.1
2018-10-05T05:14:40.180Z,17.1
2018-10-05T05:15:30.231Z,17.1
2018-10-05T05:16:19.775Z,17.1
2018-10-05T05:17:09.779Z,17.1
2018-10-05T05:18:00.986Z,17.1
2018-10-05T05:18:50.646Z,17.1
2018-10-05T05:19:42.575Z,17.1
2018-10-05T05:20:30.580Z,17.1
2018-10-05T05:21:20.919Z,17.1
2018-10-05T05:22:10.440Z,17.1
2018-10-05T05:23:00.197Z,17.1
2018-10-05T05:23:51.126Z,17.1
2018-10-05T05:24:41.140Z,17.1
2018-10-05T05:25:30.858Z,17.1
2018-10-05T05:26:21.464Z,17.1
2018-10-05T05:27:12.129Z,17.1
2018-10-05T05:28:02.174Z,17.1
2018-10-05T05:28:51.509Z,17.1
2018-10-05T05:29:41.519Z,17.1
2018-10-05T05:30:32.041Z,17.1
2018-10-05T05:31:20.756Z,17.1
2018-10-05T05:32:11.672Z,17.1
2018-10-05T05:33:02.350Z,17.1
2018-10-05T05:33:52.208Z,17.1
2018-10-05T05:34:41.569Z,17.1
2018-10-05T05:35:32.691Z,17.1
2018-10-05T05:36:22.806Z,17.1
2018-10-05T05:37:11.973Z,17.1
2018-10-05T05:38:02.368Z,17.1
2018-10-05T05:39:42.475Z,17.1
2018-10-05T05:40:33.928Z,17.1
2018-10-05T05:41:22.814Z,17.1
2018-10-05T05:42:12.624Z,17.1
2018-10-05T05:43:02.730Z,17.1
2018-10-05T05:46:22.948Z,17.1
2018-10-05T06:18:54.868Z,16.9
2018-10-05T06:19:46.015Z,16.9
2018-10-05T06:20:35.026Z,16.9
2018-10-05T06:21:25.327Z,16.9
2018-10-05T06:23:05.155Z,16.9
2018-10-05T06:24:45.536Z,16.9
2018-10-05T06:26:26.178Z,16.9
2018-10-05T06:27:17.750Z,16.9
2018-10-05T06:28:06.640Z,16.9
2018-10-05T06:28:55.500Z,16.9
2018-10-05T06:30:36.638Z,16.9
2018-10-05T06:31:26.847Z,16.9
2018-10-05T06:32:16.138Z,16.9
2018-10-05T06:33:07.456Z,16.9
2018-10-05T06:33:56.557Z,16.9
2018-10-05T06:34:47.095Z,16.9
2018-10-05T06:35:36.314Z,16.9
2018-10-05T06:36:26.101Z,16.9
2018-10-05T06:38:07.698Z,16.9
2018-10-05T06:38:56.666Z,16.9
2018-10-05T06:39:46.639Z,16.9
2018-10-05T06:40:37.171Z,16.9
2018-10-05T06:41:27.297Z,16.9
2018-10-05T06:42:19.672Z,16.9
2018-10-05T06:43:06.597Z,16.9
2018-10-05T06:43:56.646Z,16.9
2018-10-05T06:44:47.009Z,16.9
2018-10-05T06:45:37.392Z,16.9
2018-10-05T06:46:26.832Z,16.9
2018-10-05T06:47:17.381Z,16.9
2018-10-05T06:48:08.298Z,16.9
2018-10-05T06:48:56.995Z,16.9
2018-10-05T06:49:47.634Z,16.9
2018-10-05T06:50:37.737Z,16.9
2018-10-05T06:51:27.718Z,16.9
2018-10-05T06:52:16.980Z,16.9
2018-10-05T06:53:07.846Z,16.9
2018-10-05T06:53:57.666Z,16.9
2018-10-05T06:54:48.354Z,16.9
2018-10-05T06:55:37.769Z,16.9
2018-10-05T06:56:28.956Z,16.9
2018-10-05T06:57:18.733Z,16.9
2018-10-05T06:58:08.829Z,16.9
2018-10-05T06:58:58.084Z,16.9
2018-10-05T06:59:48.898Z,16.9
2018-10-05T07:00:37.868Z,16.9
2018-10-05T07:01:28.956Z,16.9
2018-10-05T07:02:19.469Z,16.9
2018-10-05T07:03:07.466Z,16.9
2018-10-05T07:03:58.628Z,16.9
2018-10-05T07:04:48.491Z,16.9
2018-10-05T07:05:38.536Z,16.9
2018-10-05T07:06:28.553Z,16.9
2018-10-05T07:07:19.244Z,16.9
2018-10-05T07:08:11.178Z,16.9
2018-10-05T07:08:59.049Z,16.9
2018-10-05T07:09:48.806Z,16.9
2018-10-05T07:10:38.046Z,16.9
2018-10-05T07:11:30.154Z,16.9
2018-10-05T07:12:18.113Z,16.9
2018-10-05T07:13:09.340Z,16.9
2018-10-05T07:13:59.486Z,16.9
2018-10-05T07:14:49.481Z,16.9
2018-10-05T07:15:40.190Z,16.9
2018-10-05T07:16:29.922Z,16.9
2018-10-05T07:18:10.207Z,16.9
2018-10-05T07:18:59.808Z,16.9
2018-10-05T07:19:49.566Z,16.9
2018-10-05T07:20:39.346Z,16.9
2018-10-05T07:21:32.477Z,16.9
2018-10-05T07:24:00.649Z,16.9
2018-10-05T07:24:50.289Z,16.9
2018-10-05T07:25:39.374Z,16.9
2018-10-05T07:26:30.329Z,16.9
2018-10-05T07:28:11.117Z,16.9
2018-10-05T07:28:59.978Z,16.9
2018-10-05T07:29:50.570Z,16.9
2018-10-05T07:30:40.944Z,16.9
2018-10-05T07:33:10.919Z,16.9
2018-10-05T07:41:31.671Z,16.9
2018-10-05T07:42:20.913Z,16.9
2018-10-05T08:08:13.644Z,17.1
2018-10-05T08:19:02.791Z,17.1
2018-10-05T08:20:43.880Z,17.1
2018-10-05T08:23:13.761Z,17.1
2018-10-05T08:24:03.801Z,17.1
2018-10-05T08:24:54.155Z,17.1
2018-10-05T08:25:43.626Z,17.1
2018-10-05T08:26:32.868Z,17.1
2018-10-05T08:27:23.978Z,17.1
2018-10-05T08:28:13.446Z,17.1
2018-10-05T08:29:03.698Z,17.1
2018-10-05T08:29:55.310Z,17.1
2018-10-05T08:30:44.107Z,17.1
2018-10-05T08:31:34.690Z,17.1
2018-10-05T08:32:24.205Z,17.1
2018-10-05T08:33:15.801Z,17.1
2018-10-05T08:34:05.741Z,17.1
2018-10-05T08:34:55.423Z,17.1
2018-10-05T08:35:45.452Z,17.1
2018-10-05T08:36:35.322Z,17.1
2018-10-05T08:37:24.606Z,17.1
2018-10-05T08:38:14.831Z,17.1
2018-10-05T08:39:05.217Z,17.1
2018-10-05T08:39:57.119Z,17.1
2018-10-05T08:40:46.377Z,17.1
2018-10-05T08:41:35.110Z,17.1
2018-10-05T08:42:26.215Z,17.1
2018-10-05T08:43:15.243Z,17.1
2018-10-05T08:44:05.569Z,17.1
2018-10-05T08:44:55.607Z,17.1
2018-10-05T08:45:46.726Z,17.1
2018-10-05T08:46:34.557Z,17.1
2018-10-05T08:47:26.314Z,17.1
2018-10-05T08:48:15.738Z,17.1
2018-10-05T08:49:04.540Z,17.1
2018-10-05T08:49:56.037Z,17.1
2018-10-05T08:50:46.040Z,17.1
2018-10-05T08:51:37.038Z,17.1
2018-10-05T08:52:27.627Z,17.1
2018-10-05T09:08:45.261Z,17.1
2018-10-05T09:09:34.785Z,17.2
2018-10-05T09:10:24.789Z,17.1
2018-10-05T09:11:15.241Z,17.1
2018-10-05T09:12:04.693Z,17.1
2018-10-05T09:12:55.285Z,17.2
2018-10-05T09:13:44.708Z,17.2
2018-10-05T09:14:34.885Z,17.2
2018-10-05T09:15:24.380Z,17.1
2018-10-05T09:16:15.241Z,17.1
2018-10-05T09:17:04.775Z,17.2
2018-10-05T09:17:56.107Z,17.1
2018-10-05T09:18:44.868Z,17.2
2018-10-05T09:19:34.900Z,17.2
2018-10-05T09:20:25.276Z,17.1
2018-10-05T09:21:15.607Z,17.1
2018-10-05T09:22:05.715Z,17.1
2018-10-05T09:22:55.975Z,17.1
2018-10-05T09:23:45.778Z,17.2
2018-10-05T09:24:35.646Z,17.2
2018-10-05T09:25:24.662Z,17.1
2018-10-05T09:26:15.975Z,17.2
2018-10-05T09:27:04.637Z,17.2
2018-10-05T09:27:56.387Z,17.2
2018-10-05T09:28:46.162Z,17.2
2018-10-05T09:29:36.210Z,17.2
2018-10-05T09:30:26.407Z,17.1
2018-10-05T09:31:15.238Z,17.2
2018-10-05T09:32:05.114Z,17.2
2018-10-05T09:32:55.075Z,17.2
2018-10-05T09:33:46.429Z,17.2
2018-10-05T09:34:37.131Z,17.2
2018-10-05T09:35:25.829Z,17.2
2018-10-05T09:36:17.251Z,17.2
2018-10-05T09:37:06.812Z,17.2
2018-10-05T09:37:58.901Z,17.2
2018-10-05T09:38:46.883Z,17.2
2018-10-05T09:39:36.701Z,17.2
2018-10-05T09:40:27.007Z,17.2
2018-10-05T09:41:16.761Z,17.2
2018-10-05T09:42:07.159Z,17.2
2018-10-05T09:42:57.733Z,17.2
2018-10-05T09:43:48.204Z,17.2
2018-10-05T09:44:36.883Z,17.2
2018-10-05T09:45:27.994Z,17.2
2018-10-05T09:46:17.721Z,17.2
2018-10-05T09:47:08.346Z,17.2
2018-10-05T09:47:57.311Z,17.3
2018-10-05T09:48:47.116Z,17.2
2018-10-05T09:49:36.933Z,17.2
2018-10-05T09:50:28.042Z,17.2
2018-10-05T09:51:18.546Z,17.2
2018-10-05T09:52:08.356Z,17.2
2018-10-05T09:52:58.781Z,17.2
2018-10-05T09:53:48.044Z,17.2
2018-10-05T09:54:38.038Z,17.2
2018-10-05T09:55:27.003Z,17.2
2018-10-05T09:56:16.931Z,17.2
2018-10-05T09:57:06.928Z,17.3
2018-10-05T09:57:59.654Z,17.2
2018-10-05T09:58:49.010Z,17.3
2018-10-05T09:59:38.881Z,17.2
2018-10-05T10:00:27.773Z,17.2
2018-10-05T10:01:18.642Z,17.3
2018-10-05T10:02:08.345Z,17.2
2018-10-05T10:02:59.252Z,17.2
2018-10-05T10:03:49.071Z,17.2
2018-10-05T10:04:37.987Z,17.2
2018-10-05T10:05:28.978Z,17.2
2018-10-05T10:06:18.725Z,17.2
2018-10-05T10:07:07.903Z,17.2
2018-10-05T10:08:00.665Z,17.3
2018-10-05T10:08:48.883Z,17.3
2018-10-05T10:09:39.522Z,17.3
2018-10-05T10:10:28.417Z,17.2
2018-10-05T10:11:18.510Z,17.2
2018-10-05T10:12:09.052Z,17.3
2018-10-05T10:12:58.600Z,17.3
2018-10-05T10:13:50.765Z,17.3
2018-10-05T10:14:40.254Z,17.3
2018-10-05T10:15:30.477Z,17.3
2018-10-05T10:16:19.602Z,17.2
2018-10-05T10:17:09.469Z,17.3
2018-10-05T10:17:59.739Z,17.3
2018-10-05T10:18:50.119Z,17.3
2018-10-05T10:19:39.815Z,17.3
2018-10-05T10:20:29.886Z,17.3
2018-10-05T10:21:20.142Z,17.3
2018-10-05T10:22:09.761Z,17.3
2018-10-05T10:23:00.135Z,17.3
2018-10-05T10:23:50.493Z,17.3
2018-10-05T10:24:41.044Z,17.3
2018-10-05T10:25:30.036Z,17.3
2018-10-05T10:26:21.201Z,17.3
2018-10-05T10:27:10.669Z,17.3
2018-10-05T10:28:01.792Z,17.3
2018-10-05T10:28:53.024Z,17.3
2018-10-05T10:29:42.391Z,17.3
2018-10-05T10:30:30.743Z,17.3
2018-10-05T10:31:21.685Z,17.3
2018-10-05T10:32:11.356Z,17.3
2018-10-05T10:33:00.269Z,17.3
2018-10-05T10:33:52.774Z,17.3
2018-10-05T10:34:42.680Z,17.3
2018-10-05T10:35:32.177Z,17.3
2018-10-05T10:36:22.229Z,17.3
2018-10-05T10:37:12.031Z,17.3
2018-10-05T10:38:00.911Z,17.3
2018-10-05T10:38:51.333Z,17.3
2018-10-05T10:39:42.449Z,17.3
2018-10-05T10:40:31.995Z,17.3
2018-10-05T10:41:21.729Z,17.3
2018-10-05T10:42:12.096Z,17.3
2018-10-05T10:43:00.522Z,17.3
2018-10-05T10:43:52.213Z,17.3
2018-10-05T10:44:41.833Z,17.3
2018-10-05T10:45:32.124Z,17.3
2018-10-05T10:46:21.888Z,17.3
2018-10-05T10:47:10.868Z,17.3
2018-10-05T10:48:02.382Z,17.3
2018-10-05T10:48:50.946Z,17.3
2018-10-05T10:49:41.857Z,17.3
2018-10-05T10:50:31.652Z,17.3
2018-10-05T10:51:21.521Z,17.3
2018-10-05T10:52:12.156Z,17.3
2018-10-05T10:53:02.423Z,17.3
2018-10-05T10:53:52.018Z,17.3
2018-10-05T10:54:42.723Z,17.3
2018-10-05T10:55:31.422Z,17.3
2018-10-05T10:56:25.067Z,17.3
2018-10-05T10:57:12.763Z,17.3
2018-10-05T10:58:03.020Z,17.3
2018-10-05T10:58:53.092Z,17.3
2018-10-05T10:59:42.545Z,17.3
2018-10-05T11:00:33.760Z,17.3
2018-10-05T11:01:23.750Z,17.3
2018-10-05T11:02:14.425Z,17.3
2018-10-05T11:03:03.976Z,17.3
2018-10-05T11:03:53.735Z,17.3
2018-10-05T11:04:46.127Z,17.4
2018-10-05T11:05:33.812Z,17.4
2018-10-05T11:06:22.745Z,17.4
2018-10-05T11:07:17.312Z,17.4
2018-10-05T11:08:03.601Z,17.3
2018-10-05T11:08:54.521Z,17.3
2018-10-05T11:09:43.945Z,17.3
2018-10-05T11:10:34.073Z,17.3
2018-10-05T11:11:25.929Z,17.3
2018-10-05T11:12:14.672Z,17.3
2018-10-05T11:13:03.482Z,17.4
2018-10-05T11:13:54.139Z,17.3
2018-10-05T11:14:44.215Z,17.4
2018-10-05T11:15:35.079Z,17.3
2018-10-05T11:16:25.641Z,17.3
2018-10-05T11:17:16.060Z,17.3
2018-10-05T11:18:04.456Z,17.3
2018-10-05T11:18:54.484Z,17.3
2018-10-05T11:19:45.414Z,17.4
2018-10-05T11:20:34.655Z,17.4
2018-10-05T11:21:25.214Z,17.3
2018-10-05T11:22:14.479Z,17.4
2018-10-05T11:23:05.528Z,17.4
2018-10-05T11:23:55.479Z,17.4
2018-10-05T11:24:45.263Z,17.4
2018-10-05T11:25:35.247Z,17.4
2018-10-05T11:26:26.262Z,17.4
2018-10-05T11:27:15.378Z,17.4
2018-10-05T11:28:05.753Z,17.4
2018-10-05T11:28:55.211Z,17.4
2018-10-05T11:29:46.882Z,17.4
2018-10-05T11:30:35.065Z,17.4
2018-10-05T11:31:24.961Z,17.4
2018-10-05T11:32:15.258Z,17.4
2018-10-05T11:33:05.685Z,17.4
2018-10-05T11:33:54.571Z,17.4
2018-10-05T11:34:45.167Z,17.4
2018-10-05T11:35:35.232Z,17.4
2018-10-05T11:36:26.388Z,17.4
2018-10-05T11:37:15.719Z,17.4
2018-10-05T11:38:05.758Z,17.4
2018-10-05T11:38:56.379Z,17.3
2018-10-05T11:39:46.020Z,17.4
2018-10-05T11:40:36.154Z,17.4
2018-10-05T11:41:25.185Z,17.4
2018-10-05T11:42:15.791Z,17.4
2018-10-05T11:43:06.465Z,17.4
2018-10-05T11:43:55.959Z,17.4
2018-10-05T11:44:46.278Z,17.4
2018-10-05T11:45:36.359Z,17.4
2018-10-05T11:46:27.940Z,17.4
2018-10-05T11:47:16.097Z,17.4
2018-10-05T11:48:07.000Z,17.4
2018-10-05T11:48:56.559Z,17.4
2018-10-05T11:49:46.556Z,17.4
2018-10-05T11:50:35.944Z,17.4
2018-10-05T11:51:27.227Z,17.4
2018-10-05T11:52:17.688Z,17.4
2018-10-05T11:53:07.484Z,17.4
2018-10-05T11:53:57.345Z,17.4
2018-10-05T11:54:46.851Z,17.4
2018-10-05T11:55:37.457Z,17.4
2018-10-05T11:56:27.753Z,17.4
2018-10-05T11:57:16.860Z,17.4
2018-10-05T11:58:07.008Z,17.4
2018-10-05T11:58:57.578Z,17.4
2018-10-05T11:59:48.771Z,17.4
2018-10-05T12:00:36.949Z,17.4
2018-10-05T12:01:28.208Z,17.4
2018-10-05T12:02:18.420Z,17.4
2018-10-05T12:03:08.179Z,17.4
2018-10-05T12:03:59.527Z,17.4
2018-10-05T12:04:49.415Z,17.4
2018-10-05T12:05:37.947Z,17.4
2018-10-05T12:06:28.962Z,17.4
2018-10-05T12:07:19.379Z,17.4
2018-10-05T12:08:09.245Z,17.4
2018-10-05T12:08:59.426Z,17.4
2018-10-05T12:09:49.646Z,17.4
2018-10-05T12:10:39.178Z,17.4
2018-10-05T12:11:29.190Z,17.4
2018-10-05T12:12:19.054Z,17.4
2018-10-05T12:13:09.539Z,17.4
2018-10-05T12:14:01.781Z,17.4
2018-10-05T12:14:50.065Z,17.4
2018-10-05T12:15:39.821Z,17.4
2018-10-05T12:16:30.048Z,17.4
2018-10-05T12:17:19.937Z,17.4
2018-10-05T12:18:09.482Z,17.4
2018-10-05T12:18:59.822Z,17.4
2018-10-05T12:19:49.114Z,17.4
2018-10-05T12:20:39.422Z,17.4
2018-10-05T12:21:29.727Z,17.5
2018-10-05T12:22:19.666Z,17.5
2018-10-05T12:23:10.244Z,17.5
2018-10-05T12:23:58.845Z,17.5
2018-10-05T12:24:49.622Z,17.5
2018-10-05T12:25:39.310Z,17.5
2018-10-05T12:26:30.287Z,17.5
2018-10-05T12:27:20.050Z,17.5
2018-10-05T12:28:09.783Z,17.5
2018-10-05T12:29:00.196Z,17.5
2018-10-05T12:29:50.267Z,17.6
2018-10-05T12:30:40.452Z,17.5
2018-10-05T12:31:30.563Z,17.6
2018-10-05T12:32:19.301Z,17.5
2018-10-05T12:33:10.918Z,17.6
2018-10-05T12:34:01.021Z,17.6
2018-10-05T12:34:50.941Z,17.5
2018-10-05T12:35:41.084Z,17.5
2018-10-05T12:36:31.098Z,17.6
2018-10-05T12:37:22.578Z,17.6
2018-10-05T12:38:10.641Z,17.6
2018-10-05T12:39:01.354Z,17.6
2018-10-05T12:39:51.598Z,17.6
2018-10-05T12:40:41.111Z,17.6
2018-10-05T12:41:30.900Z,17.6
2018-10-05T12:42:21.558Z,17.6
2018-10-05T12:43:11.593Z,17.6
2018-10-05T12:44:01.365Z,17.6
2018-10-05T12:44:50.597Z,17.6
2018-10-05T12:45:41.707Z,17.6
2018-10-05T12:46:31.801Z,17.6
2018-10-05T12:47:21.088Z,17.6
2018-10-05T12:48:11.487Z,17.6
2018-10-05T12:49:01.428Z,17.6
2018-10-05T12:49:51.222Z,17.6
2018-10-05T12:50:41.832Z,17.6
2018-10-05T12:51:32.207Z,17.6
2018-10-05T12:52:21.413Z,17.6
2018-10-05T12:53:12.052Z,17.6
2018-10-05T12:54:01.825Z,17.6
2018-10-05T12:54:52.538Z,17.6
2018-10-05T12:55:42.230Z,17.6
2018-10-05T12:56:32.601Z,17.6
2018-10-05T12:57:22.364Z,17.6
2018-10-05T12:58:13.674Z,17.6
2018-10-05T12:59:02.511Z,17.6
2018-10-05T12:59:52.809Z,17.6
2018-10-05T13:00:42.324Z,17.6
2018-10-05T13:01:33.222Z,17.6
2018-10-05T13:02:22.137Z,17.6
2018-10-05T13:03:12.534Z,17.6
2018-10-05T13:04:02.049Z,17.6
2018-10-05T13:04:52.954Z,17.6
2018-10-05T13:05:43.454Z,17.6
2018-10-05T13:06:33.331Z,17.6
2018-10-05T13:07:23.386Z,17.6
2018-10-05T13:08:12.876Z,17.6
2018-10-05T13:09:03.216Z,17.6
2018-10-05T13:09:52.668Z,17.6
2018-10-05T13:10:43.853Z,17.6
2018-10-05T13:11:32.269Z,17.6
2018-10-05T13:12:23.440Z,17.6
2018-10-05T13:13:14.727Z,17.6
2018-10-05T13:14:03.038Z,17.6
2018-10-05T13:14:53.076Z,17.6
2018-10-05T13:15:43.936Z,17.6
2018-10-05T13:16:34.293Z,17.6
2018-10-05T13:17:24.126Z,17.6
2018-10-05T13:18:13.919Z,17.6
2018-10-05T13:19:03.780Z,17.6
2018-10-05T13:19:54.318Z,17.6
2018-10-05T13:20:44.075Z,17.6
2018-10-05T13:21:34.733Z,17.6
2018-10-05T13:22:23.736Z,17.6
2018-10-05T13:23:14.298Z,17.6
2018-10-05T13:24:04.123Z,17.6
2018-10-05T13:24:57.080Z,17.6
2018-10-05T13:25:44.811Z,17.6
2018-10-05T13:26:34.347Z,17.6
2018-10-05T13:27:24.955Z,17.6